createdAt,value
2019-04-22T00:00:38.460Z,0.00
2019-04-22T00:01:35.022Z,0.00
2019-04-22T00:02:40.110Z,0.00
2019-04-22T00:03:43.215Z,0.00
2019-04-22T00:04:47.560Z,0.00
2019-04-22T00:05:55.193Z,0.00
2019-04-22T00:06:58.326Z,0.00
2019-04-22T00:08:06.181Z,0.00
2019-04-22T00:09:03.288Z,0.00
2019-04-22T00:09:53.070Z,0.00
2019-04-22T00:11:06.367Z,0.00
2019-04-22T00:11:59.280Z,0.00
2019-04-22T00:13:01.355Z,0.00
2019-04-22T00:13:57.109Z,0.00
2019-04-22T00:14:55.496Z,0.00
2019-04-22T00:15:56.530Z,0.00
2019-04-22T00:17:00.459Z,0.00
2019-04-22T00:18:07.483Z,0.00
2019-04-22T00:20:06.069Z,0.00
2019-04-22T00:20:59.803Z,0.00
2019-04-22T00:22:02.845Z,0.00
2019-04-22T00:22:57.797Z,0.00
2019-04-22T00:23:57.872Z,0.00
2019-04-22T00:25:05.551Z,0.00
2019-04-22T00:26:01.905Z,0.00
2019-04-22T00:26:59.990Z,0.00
2019-04-22T00:28:05.073Z,0.00
2019-04-22T00:29:08.188Z,0.00
2019-04-22T00:30:54.838Z,0.00
2019-04-22T00:31:58.937Z,0.00
2019-04-22T00:32:57.620Z,0.00
2019-04-22T00:33:59.165Z,0.00
2019-04-22T00:34:53.562Z,0.00
2019-04-22T00:35:54.773Z,0.00
2019-04-22T00:36:54.512Z,0.00
2019-04-22T00:37:56.925Z,0.00
2019-04-22T00:38:59.167Z,0.00
2019-04-22T00:40:14.863Z,0.00
2019-04-22T00:41:00.930Z,0.00
2019-04-22T00:41:56.485Z,0.00
2019-04-22T00:44:08.839Z,0.00
2019-04-22T00:45:02.765Z,0.00
2019-04-22T00:45:55.888Z,0.00
2019-04-22T00:46:52.268Z,0.00
2019-04-22T00:48:02.455Z,0.00
2019-04-22T00:49:51.087Z,0.00
2019-04-22T00:51:04.245Z,0.00
2019-04-22T00:52:03.308Z,0.00
2019-04-22T00:52:59.809Z,0.00
2019-04-22T00:53:58.644Z,0.00
2019-04-22T00:55:04.113Z,0.00
2019-04-22T00:55:54.932Z,0.00
2019-04-22T00:56:55.900Z,0.00
2019-04-22T00:57:56.167Z,0.00
2019-04-22T00:58:50.585Z,0.00
2019-04-22T01:00:03.680Z,0.00
2019-04-22T01:00:54.574Z,0.00
2019-04-22T01:02:01.968Z,0.00
2019-04-22T01:03:02.625Z,0.00
2019-04-22T01:04:54.849Z,0.00
2019-04-22T01:05:55.353Z,0.00
2019-04-22T01:06:51.243Z,0.00
2019-04-22T01:08:04.428Z,0.00
2019-04-22T01:09:00.192Z,0.00
2019-04-22T01:09:58.933Z,0.00
2019-04-22T01:11:00.072Z,0.00
2019-04-22T01:11:53.675Z,0.00
2019-04-22T01:12:56.946Z,0.00
2019-04-22T01:13:55.732Z,0.00
2019-04-22T01:14:53.818Z,0.00
2019-04-22T01:16:01.518Z,0.00
2019-04-22T01:16:54.814Z,0.00
2019-04-22T01:17:52.911Z,0.00
2019-04-22T01:18:53.840Z,0.00
2019-04-22T01:19:58.693Z,0.00
2019-04-22T01:21:06.561Z,0.00
2019-04-22T01:21:51.791Z,0.00
2019-04-22T01:22:56.302Z,0.00
2019-04-22T01:23:53.756Z,0.00
2019-04-22T01:24:52.282Z,0.00
2019-04-22T01:25:46.303Z,0.00
2019-04-22T01:26:43.430Z,0.00
2019-04-22T01:27:44.654Z,0.00
2019-04-22T01:28:39.547Z,0.00
2019-04-22T01:29:42.382Z,0.00
2019-04-22T01:30:39.625Z,0.00
2019-04-22T01:31:33.030Z,0.00
2019-04-22T01:32:34.979Z,0.00
2019-04-22T01:33:35.312Z,0.00
2019-04-22T01:34:46.075Z,0.00
2019-04-22T01:35:38.609Z,0.00
2019-04-22T01:36:51.628Z,0.00
2019-04-22T01:37:46.096Z,0.00
2019-04-22T01:38:56.349Z,0.00
2019-04-22T01:39:57.508Z,0.00
2019-04-22T01:40:52.589Z,0.00
2019-04-22T01:42:05.668Z,0.00
2019-04-22T01:42:50.386Z,0.00
2019-04-22T01:44:00.677Z,0.00
2019-04-22T01:44:53.362Z,0.00
2019-04-22T01:45:56.174Z,0.00
2019-04-22T01:47:53.305Z,0.00
2019-04-22T01:48:57.770Z,0.00
2019-04-22T01:49:55.599Z,0.00
2019-04-22T01:50:51.716Z,0.00
2019-04-22T01:52:58.935Z,0.00
2019-04-22T01:53:57.948Z,0.00
2019-04-22T01:54:58.540Z,0.00
2019-04-22T01:55:52.207Z,0.00
2019-04-22T01:56:55.969Z,0.00
2019-04-22T01:57:47.709Z,0.00
2019-04-22T01:58:48.303Z,0.00
2019-04-22T01:59:45.718Z,0.00
2019-04-22T02:00:53.676Z,0.00
2019-04-22T02:03:12.735Z,0.00
2019-04-22T02:03:54.606Z,0.00
2019-04-22T02:04:53.663Z,0.00
2019-04-22T02:05:53.631Z,0.00
2019-04-22T02:07:54.291Z,0.00
2019-04-22T02:09:56.095Z,0.00
2019-04-22T02:10:55.053Z,0.00
2019-04-22T02:11:56.361Z,0.00
2019-04-22T02:12:54.056Z,0.00
2019-04-22T02:14:02.818Z,0.00
2019-04-22T02:15:52.497Z,0.00
2019-04-22T02:16:58.036Z,0.00
2019-04-22T02:17:54.719Z,0.00
2019-04-22T02:18:53.313Z,0.00
2019-04-22T02:20:02.623Z,0.00
2019-04-22T02:20:48.818Z,0.00
2019-04-22T02:21:51.675Z,0.00
2019-04-22T02:23:17.631Z,0.00
2019-04-22T02:24:02.171Z,0.00
2019-04-22T02:24:50.928Z,0.00
2019-04-22T02:25:56.393Z,0.00
2019-04-22T02:26:51.924Z,0.00
2019-04-22T02:27:54.622Z,0.00
2019-04-22T02:28:47.657Z,0.00
2019-04-22T02:30:01.450Z,0.00
2019-04-22T02:31:13.957Z,0.00
2019-04-22T02:31:59.072Z,0.00
2019-04-22T02:33:18.413Z,0.00
2019-04-22T02:34:09.648Z,0.00
2019-04-22T02:35:11.280Z,0.00
2019-04-22T02:36:15.132Z,0.00
2019-04-22T02:38:00.451Z,0.00
2019-04-22T02:39:57.708Z,0.00
2019-04-22T02:41:21.049Z,0.00
2019-04-22T02:41:54.703Z,0.00
2019-04-22T02:43:01.350Z,0.00
2019-04-22T02:44:01.716Z,0.00
2019-04-22T02:46:12.827Z,0.00
2019-04-22T02:49:11.715Z,0.00
2019-04-22T02:49:58.959Z,0.00
2019-04-22T02:51:04.402Z,0.00
2019-04-22T02:52:14.012Z,0.00
2019-04-22T02:52:51.287Z,0.00
2019-04-22T02:55:02.084Z,0.00
2019-04-22T02:56:06.138Z,0.00
2019-04-22T02:56:48.636Z,0.00
2019-04-22T02:57:49.117Z,0.00
2019-04-22T02:59:04.226Z,0.00
2019-04-22T03:00:00.992Z,0.00
2019-04-22T03:00:56.336Z,0.00
2019-04-22T03:01:47.504Z,0.00
2019-04-22T03:03:09.110Z,0.00
2019-04-22T03:04:57.940Z,0.00
2019-04-22T03:08:02.422Z,0.00
2019-04-22T03:09:59.616Z,0.00
2019-04-22T03:11:07.135Z,0.00
2019-04-22T03:12:04.565Z,0.00
2019-04-22T03:12:52.208Z,0.00
2019-04-22T03:13:55.126Z,0.00
2019-04-22T03:14:48.197Z,0.00
2019-04-22T03:16:05.827Z,0.00
2019-04-22T03:17:58.427Z,0.00
2019-04-22T03:20:58.224Z,0.00
2019-04-22T03:21:54.545Z,0.00
2019-04-22T03:22:59.984Z,0.00
2019-04-22T03:25:11.627Z,0.00
2019-04-22T03:27:48.273Z,0.00
2019-04-22T03:30:26.425Z,0.00
2019-04-22T03:34:21.407Z,0.00
2019-04-22T03:38:07.259Z,0.00
2019-04-22T03:40:55.347Z,0.00
2019-04-22T03:42:57.771Z,0.00
2019-04-22T03:44:20.760Z,0.00
2019-04-22T03:45:37.893Z,0.00
2019-04-22T03:47:57.560Z,0.00
2019-04-22T03:49:02.290Z,4.00
2019-04-22T03:52:53.086Z,0.00
2019-04-22T03:54:04.828Z,4.00
2019-04-22T03:55:00.693Z,4.00
2019-04-22T03:55:57.568Z,8.00
2019-04-22T03:57:17.717Z,8.00
2019-04-22T03:58:57.153Z,8.00
2019-04-22T04:00:55.774Z,8.00
2019-04-22T04:01:53.388Z,16.00
2019-04-22T04:02:59.537Z,12.00
2019-04-22T04:04:07.506Z,16.00
2019-04-22T04:04:49.489Z,20.00
2019-04-22T04:06:00.305Z,24.00
2019-04-22T04:07:01.925Z,24.00
2019-04-22T04:08:53.298Z,32.00
2019-04-22T04:10:01.104Z,40.00
2019-04-22T04:10:48.378Z,44.00
2019-04-22T04:11:59.237Z,48.00
2019-04-22T04:13:53.992Z,56.00
2019-04-22T04:15:00.114Z,64.00
2019-04-22T04:15:40.549Z,72.00
2019-04-22T04:16:56.172Z,76.00
2019-04-22T04:17:51.394Z,80.00
2019-04-22T04:21:46.998Z,112.00
2019-04-22T04:24:02.939Z,132.00
2019-04-22T04:25:17.158Z,140.00
2019-04-22T04:25:48.200Z,152.00
2019-04-22T04:26:57.210Z,160.00
2019-04-22T04:30:51.324Z,196.00
2019-04-22T04:31:58.290Z,208.00
2019-04-22T04:33:51.839Z,232.00
2019-04-22T04:35:07.207Z,240.00
2019-04-22T04:36:01.501Z,252.00
2019-04-22T04:36:54.834Z,264.00
2019-04-22T04:39:53.143Z,300.00
2019-04-22T04:41:06.315Z,312.00
2019-04-22T04:41:51.882Z,324.00
2019-04-22T04:42:53.672Z,336.00
2019-04-22T04:43:56.438Z,348.00
2019-04-22T04:45:18.984Z,360.00
2019-04-22T04:49:52.304Z,416.00
2019-04-22T04:50:58.638Z,424.00
2019-04-22T04:51:47.203Z,432.00
2019-04-22T04:53:01.466Z,444.00
2019-04-22T04:54:58.824Z,464.00
2019-04-22T04:55:47.152Z,472.00
2019-04-22T04:56:57.045Z,484.00
2019-04-22T04:57:57.454Z,492.00
2019-04-22T05:00:58.055Z,528.00
2019-04-22T05:02:06.414Z,536.00
2019-04-22T05:04:04.934Z,552.00
2019-04-22T05:04:59.485Z,556.00
2019-04-22T05:05:47.609Z,564.00
2019-04-22T05:07:01.857Z,576.00
2019-04-22T05:09:46.278Z,616.00
2019-04-22T05:11:53.968Z,644.00
2019-04-22T05:14:50.467Z,680.00
2019-04-22T05:18:44.636Z,728.00
2019-04-22T05:19:50.343Z,740.00
2019-04-22T05:20:55.523Z,752.00
2019-04-22T05:21:40.714Z,760.00
2019-04-22T05:22:43.152Z,772.00
2019-04-22T05:23:47.097Z,772.00
2019-04-22T05:24:42.573Z,764.00
2019-04-22T05:25:31.691Z,784.00
2019-04-22T05:26:39.672Z,808.00
2019-04-22T05:27:40.118Z,820.00
2019-04-22T05:28:40.151Z,840.00
2019-04-22T05:30:40.712Z,848.00
2019-04-22T05:31:43.547Z,868.00
2019-04-22T05:32:59.629Z,880.00
2019-04-22T05:33:41.125Z,892.00
2019-04-22T05:34:42.866Z,904.00
2019-04-22T05:35:38.982Z,908.00
2019-04-22T05:36:42.579Z,904.00
2019-04-22T05:37:40.499Z,904.00
2019-04-22T05:38:49.515Z,900.00
2019-04-22T05:39:38.876Z,960.00
2019-04-22T05:40:50.161Z,972.00
2019-04-22T05:41:54.705Z,976.00
2019-04-22T05:42:39.676Z,992.00
2019-04-22T05:43:41.047Z,1004.00
2019-04-22T05:44:41.270Z,1016.00
2019-04-22T05:45:33.087Z,1028.00
2019-04-22T05:46:34.491Z,1040.00
2019-04-22T05:47:40.361Z,1052.00
2019-04-22T05:48:37.996Z,1064.00
2019-04-22T05:49:34.773Z,1072.00
2019-04-22T05:50:37.291Z,1080.00
2019-04-22T05:51:36.999Z,1092.00
2019-04-22T05:52:34.471Z,1104.00
2019-04-22T05:53:32.507Z,1112.00
2019-04-22T05:54:38.964Z,1124.00
2019-04-22T05:55:42.631Z,1136.00
2019-04-22T05:56:38.649Z,1144.00
2019-04-22T05:57:37.234Z,1156.00
2019-04-22T05:58:39.808Z,1168.00
2019-04-22T05:59:39.715Z,1180.00
2019-04-22T06:01:05.720Z,1192.00
2019-04-22T06:01:43.216Z,1200.00
2019-04-22T06:02:47.603Z,1208.00
2019-04-22T06:03:39.008Z,1220.00
2019-04-22T06:04:36.820Z,1232.00
2019-04-22T06:05:38.671Z,1240.00
2019-04-22T06:06:36.996Z,1256.00
2019-04-22T06:07:36.875Z,1264.00
2019-04-22T06:08:42.389Z,1272.00
2019-04-22T06:09:32.349Z,1284.00
2019-04-22T06:10:41.123Z,1288.00
2019-04-22T06:11:33.877Z,1296.00
2019-04-22T06:12:23.438Z,1300.00
2019-04-22T06:13:33.056Z,1312.00
2019-04-22T06:14:30.748Z,1324.00
2019-04-22T06:15:36.329Z,1336.00
2019-04-22T06:16:38.061Z,1340.00
2019-04-22T06:17:45.630Z,1352.00
2019-04-22T06:18:33.353Z,1360.00
2019-04-22T06:19:33.321Z,1360.00
2019-04-22T06:20:42.064Z,1344.00
2019-04-22T06:21:40.124Z,1336.00
2019-04-22T06:22:45.003Z,1332.00
2019-04-22T06:23:40.275Z,1364.00
2019-04-22T06:24:31.392Z,1376.00
2019-04-22T06:25:51.342Z,1396.00
2019-04-22T06:26:45.814Z,1404.00
2019-04-22T06:27:37.480Z,1432.00
2019-04-22T06:29:32.029Z,1452.00
2019-04-22T06:30:37.555Z,1460.00
2019-04-22T06:31:52.664Z,1476.00
2019-04-22T06:32:47.235Z,1484.00
2019-04-22T06:33:34.665Z,1492.00
2019-04-22T06:34:35.701Z,1504.00
2019-04-22T06:35:36.414Z,1512.00
2019-04-22T06:36:37.852Z,1524.00
2019-04-22T06:37:37.973Z,1536.00
2019-04-22T06:38:33.998Z,1544.00
2019-04-22T06:39:34.378Z,1552.00
2019-04-22T06:40:32.840Z,1560.00
2019-04-22T06:41:35.378Z,1576.00
2019-04-22T06:42:37.758Z,1584.00
2019-04-22T06:43:38.482Z,1592.00
2019-04-22T06:44:36.588Z,1600.00
2019-04-22T06:45:37.353Z,1608.00
2019-04-22T06:46:33.594Z,1616.00
2019-04-22T06:47:52.716Z,1620.00
2019-04-22T06:48:33.056Z,1608.00
2019-04-22T06:49:35.197Z,1616.00
2019-04-22T06:50:38.448Z,1624.00
2019-04-22T06:51:32.493Z,1628.00
2019-04-22T06:52:28.159Z,1632.00
2019-04-22T06:53:39.181Z,1624.00
2019-04-22T06:54:32.925Z,1636.00
2019-04-22T06:55:35.605Z,1648.00
2019-04-22T06:56:27.799Z,1652.00
2019-04-22T06:57:30.534Z,1652.00
2019-04-22T06:58:34.985Z,1688.00
2019-04-22T06:59:31.158Z,1720.00
2019-04-22T07:01:40.517Z,1748.00
2019-04-22T07:02:45.215Z,1720.00
2019-04-22T07:03:41.661Z,1712.00
2019-04-22T07:04:33.663Z,1716.00
2019-04-22T07:05:32.939Z,1656.00
2019-04-22T07:06:34.958Z,1740.00
2019-04-22T07:07:35.169Z,1740.00
2019-04-22T07:09:34.976Z,1752.00
2019-04-22T07:10:36.688Z,1756.00
2019-04-22T07:11:33.929Z,1756.00
2019-04-22T07:12:30.480Z,1760.00
2019-04-22T07:14:28.579Z,1812.00
2019-04-22T07:17:38.016Z,1888.00
2019-04-22T07:19:36.155Z,1924.00
2019-04-22T07:20:42.164Z,1944.00
2019-04-22T07:21:30.607Z,1936.00
2019-04-22T07:23:34.942Z,1936.00
2019-04-22T07:24:40.669Z,1780.00
2019-04-22T07:25:29.109Z,1796.00
2019-04-22T07:26:27.546Z,1856.00
2019-04-22T07:27:27.820Z,1872.00
2019-04-22T07:28:27.376Z,1900.00
2019-04-22T07:29:32.694Z,1808.00
2019-04-22T07:31:29.020Z,2004.00
2019-04-22T07:32:53.527Z,1992.00
2019-04-22T07:33:34.607Z,2012.00
2019-04-22T07:34:33.322Z,2012.00
2019-04-22T07:35:35.998Z,2028.00
2019-04-22T07:37:43.541Z,2032.00
2019-04-22T07:38:26.876Z,2060.00
2019-04-22T07:39:32.580Z,2068.00
2019-04-22T07:40:34.158Z,2060.00
2019-04-22T07:41:31.752Z,2092.00
2019-04-22T07:42:32.561Z,2100.00
2019-04-22T07:43:40.406Z,2116.00
2019-04-22T07:44:32.476Z,2108.00
2019-04-22T07:45:32.509Z,2116.00
2019-04-22T07:46:33.635Z,2124.00
2019-04-22T07:47:35.864Z,2136.00
2019-04-22T07:48:49.932Z,2144.00
2019-04-22T07:49:33.594Z,2148.00
2019-04-22T07:50:44.771Z,2152.00
2019-04-22T07:51:32.770Z,2156.00
2019-04-22T07:52:27.606Z,2164.00
2019-04-22T07:53:27.864Z,2168.00
2019-04-22T07:54:26.458Z,2164.00
2019-04-22T07:55:27.619Z,2096.00
2019-04-22T07:56:29.336Z,2016.00
2019-04-22T07:58:30.742Z,2112.00
2019-04-22T07:59:28.053Z,2124.00
2019-04-22T08:00:31.156Z,2136.00
2019-04-22T08:01:26.698Z,2176.00
2019-04-22T08:02:32.784Z,2188.00
2019-04-22T08:03:37.545Z,2204.00
2019-04-22T08:05:41.600Z,2232.00
2019-04-22T08:06:31.327Z,2240.00
2019-04-22T08:07:31.627Z,2248.00
2019-04-22T08:09:40.805Z,2256.00
2019-04-22T08:12:34.296Z,2268.00
2019-04-22T08:13:30.784Z,2284.00
2019-04-22T08:14:31.393Z,2284.00
2019-04-22T08:15:27.304Z,2288.00
